sensor_id;sensor_type;location;lat;lon;timestamp;temperature;humidity
52495;DHT22;38405;53.212;5.660;2023-09-07T00:01:49;19.00;99.90
52495;DHT22;38405;53.212;5.660;2023-09-07T00:04:18;19.20;99.90
52495;DHT22;38405;53.212;5.660;2023-09-07T00:06:44;19.30;99.90
52495;DHT22;38405;53.212;5.660;2023-09-07T00:09:10;19.40;99.90
52495;DHT22;38405;53.212;5.660;2023-09-07T00:11:37;19.40;99.90
52495;DHT22;38405;53.212;5.660;2023-09-07T00:14:03;19.60;99.90
52495;DHT22;38405;53.212;5.660;2023-09-07T00:16:31;19.60;99.90
52495;DHT22;38405;53.212;5.660;2023-09-07T00:19:00;19.60;99.90
52495;DHT22;38405;53.212;5.660;2023-09-07T00:21:26;19.60;99.90
52495;DHT22;38405;53.212;5.660;2023-09-07T00:23:52;19.60;99.90
52495;DHT22;38405;53.212;5.660;2023-09-07T00:26:17;19.60;99.90
52495;DHT22;38405;53.212;5.660;2023-09-07T00:28:44;19.60;99.90
52495;DHT22;38405;53.212;5.660;2023-09-07T00:31:09;19.60;99.90
52495;DHT22;38405;53.212;5.660;2023-09-07T00:33:35;19.60;99.90
52495;DHT22;38405;53.212;5.660;2023-09-07T00:36:02;19.60;99.90
52495;DHT22;38405;53.212;5.660;2023-09-07T00:38:28;19.60;99.90
52495;DHT22;38405;53.212;5.660;2023-09-07T00:40:54;19.60;99.90
52495;DHT22;38405;53.212;5.660;2023-09-07T00:43:20;19.60;99.90
52495;DHT22;38405;53.212;5.660;2023-09-07T00:45:46;19.60;99.90
52495;DHT22;38405;53.212;5.660;2023-09-07T00:48:15;19.60;99.90
52495;DHT22;38405;53.212;5.660;2023-09-07T00:50:42;19.60;99.90
52495;DHT22;38405;53.212;5.660;2023-09-07T00:53:10;19.60;99.90
52495;DHT22;38405;53.212;5.660;2023-09-07T00:55:36;19.60;99.90
52495;DHT22;38405;53.212;5.660;2023-09-07T00:58:04;19.50;99.90
52495;DHT22;38405;53.212;5.660;2023-09-07T01:00:30;19.50;99.90
52495;DHT22;38405;53.212;5.660;2023-09-07T01:02:56;19.50;99.90
52495;DHT22;38405;53.212;5.660;2023-09-07T01:05:27;19.50;99.90
52495;DHT22;38405;53.212;5.660;2023-09-07T01:07:59;19.50;99.90
52495;DHT22;38405;53.212;5.660;2023-09-07T01:10:26;19.50;99.90
52495;DHT22;38405;53.212;5.660;2023-09-07T01:12:51;19.50;99.90
52495;DHT22;38405;53.212;5.660;2023-09-07T01:15:17;19.40;99.90
52495;DHT22;38405;53.212;5.660;2023-09-07T01:17:43;19.40;99.90
52495;DHT22;38405;53.212;5.660;2023-09-07T01:20:10;19.40;99.90
52495;DHT22;38405;53.212;5.660;2023-09-07T01:22:38;19.40;99.90
52495;DHT22;38405;53.212;5.660;2023-09-07T01:25:06;19.30;99.90
52495;DHT22;38405;53.212;5.660;2023-09-07T01:27:33;19.30;99.90
52495;DHT22;38405;53.212;5.660;2023-09-07T01:29:58;19.30;99.90
52495;DHT22;38405;53.212;5.660;2023-09-07T01:32:24;19.20;99.90
52495;DHT22;38405;53.212;5.660;2023-09-07T01:34:54;19.20;99.90
52495;DHT22;38405;53.212;5.660;2023-09-07T01:37:21;19.10;99.90
52495;DHT22;38405;53.212;5.660;2023-09-07T01:39:47;19.10;99.90
52495;DHT22;38405;53.212;5.660;2023-09-07T01:42:14;19.10;99.90
52495;DHT22;38405;53.212;5.660;2023-09-07T01:44:39;19.00;99.90
52495;DHT22;38405;53.212;5.660;2023-09-07T01:47:05;19.00;99.90
52495;DHT22;38405;53.212;5.660;2023-09-07T01:49:30;18.90;99.90
52495;DHT22;38405;53.212;5.660;2023-09-07T01:51:56;18.90;99.90
52495;DHT22;38405;53.212;5.660;2023-09-07T01:54:22;18.90;99.90
52495;DHT22;38405;53.212;5.660;2023-09-07T01:56:47;18.80;99.90
52495;DHT22;38405;53.212;5.660;2023-09-07T01:59:13;18.80;99.90
52495;DHT22;38405;53.212;5.660;2023-09-07T02:01:39;18.70;99.90
52495;DHT22;38405;53.212;5.660;2023-09-07T02:04:06;18.70;99.90
52495;DHT22;38405;53.212;5.660;2023-09-07T02:06:31;18.70;99.90
52495;DHT22;38405;53.212;5.660;2023-09-07T02:08:57;18.60;99.90
52495;DHT22;38405;53.212;5.660;2023-09-07T02:11:23;18.60;99.90
52495;DHT22;38405;53.212;5.660;2023-09-07T02:13:49;18.50;99.90
52495;DHT22;38405;53.212;5.660;2023-09-07T02:16:14;18.50;99.90
52495;DHT22;38405;53.212;5.660;2023-09-07T02:18:41;18.50;99.90
52495;DHT22;38405;53.212;5.660;2023-09-07T02:21:09;18.40;99.90
52495;DHT22;38405;53.212;5.660;2023-09-07T02:23:35;18.40;99.90
52495;DHT22;38405;53.212;5.660;2023-09-07T02:26:04;18.40;99.90
52495;DHT22;38405;53.212;5.660;2023-09-07T02:28:30;18.30;99.90
52495;DHT22;38405;53.212;5.660;2023-09-07T02:31:03;18.20;99.90
52495;DHT22;38405;53.212;5.660;2023-09-07T02:33:29;18.20;99.90
52495;DHT22;38405;53.212;5.660;2023-09-07T02:35:54;18.20;99.90
52495;DHT22;38405;53.212;5.660;2023-09-07T02:38:21;18.10;99.90
52495;DHT22;38405;53.212;5.660;2023-09-07T02:40:46;18.00;99.90
52495;DHT22;38405;53.212;5.660;2023-09-07T02:43:12;18.00;99.90
52495;DHT22;38405;53.212;5.660;2023-09-07T02:45:38;18.00;99.90
52495;DHT22;38405;53.212;5.660;2023-09-07T02:48:04;17.90;99.90
52495;DHT22;38405;53.212;5.660;2023-09-07T02:50:33;17.90;99.90
52495;DHT22;38405;53.212;5.660;2023-09-07T02:52:59;17.80;99.90
52495;DHT22;38405;53.212;5.660;2023-09-07T02:55:26;17.70;99.90
52495;DHT22;38405;53.212;5.660;2023-09-07T02:57:52;17.70;99.90
52495;DHT22;38405;53.212;5.660;2023-09-07T03:00:17;17.70;99.90
52495;DHT22;38405;53.212;5.660;2023-09-07T03:02:44;17.70;99.90
52495;DHT22;38405;53.212;5.660;2023-09-07T03:05:09;17.70;99.90
52495;DHT22;38405;53.212;5.660;2023-09-07T03:07:35;17.60;99.90
52495;DHT22;38405;53.212;5.660;2023-09-07T03:10:01;17.60;99.90
52495;DHT22;38405;53.212;5.660;2023-09-07T03:12:27;17.60;99.90
52495;DHT22;38405;53.212;5.660;2023-09-07T03:14:53;17.50;99.90
52495;DHT22;38405;53.212;5.660;2023-09-07T03:17:19;17.50;99.90
52495;DHT22;38405;53.212;5.660;2023-09-07T03:19:48;17.50;99.90
52495;DHT22;38405;53.212;5.660;2023-09-07T03:22:14;17.50;99.90
52495;DHT22;38405;53.212;5.660;2023-09-07T03:24:40;17.50;99.90
52495;DHT22;38405;53.212;5.660;2023-09-07T03:27:06;17.60;99.90
52495;DHT22;38405;53.212;5.660;2023-09-07T03:29:32;17.60;99.90
52495;DHT22;38405;53.212;5.660;2023-09-07T03:32:01;17.60;99.90
52495;DHT22;38405;53.212;5.660;2023-09-07T03:34:27;17.60;99.90
52495;DHT22;38405;53.212;5.660;2023-09-07T03:36:53;17.50;99.90
52495;DHT22;38405;53.212;5.660;2023-09-07T03:39:18;17.50;99.90
52495;DHT22;38405;53.212;5.660;2023-09-07T03:41:44;17.50;99.90
52495;DHT22;38405;53.212;5.660;2023-09-07T03:44:10;17.50;99.90
52495;DHT22;38405;53.212;5.660;2023-09-07T03:46:36;17.40;99.90
52495;DHT22;38405;53.212;5.660;2023-09-07T03:49:02;17.40;99.90
52495;DHT22;38405;53.212;5.660;2023-09-07T03:51:28;17.40;99.90
52495;DHT22;38405;53.212;5.660;2023-09-07T03:53:54;17.40;99.90
52495;DHT22;38405;53.212;5.660;2023-09-07T03:56:19;17.50;99.90
52495;DHT22;38405;53.212;5.660;2023-09-07T03:58:45;17.40;99.90
52495;DHT22;38405;53.212;5.660;2023-09-07T04:01:13;17.40;99.90
52495;DHT22;38405;53.212;5.660;2023-09-07T04:03:39;17.40;99.90
52495;DHT22;38405;53.212;5.660;2023-09-07T04:06:06;17.40;99.90
52495;DHT22;38405;53.212;5.660;2023-09-07T04:08:32;17.40;99.90
52495;DHT22;38405;53.212;5.660;2023-09-07T04:10:58;17.40;99.90
52495;DHT22;38405;53.212;5.660;2023-09-07T04:13:24;17.40;99.90
52495;DHT22;38405;53.212;5.660;2023-09-07T04:15:49;17.40;99.90
52495;DHT22;38405;53.212;5.660;2023-09-07T04:18:15;17.40;99.90
52495;DHT22;38405;53.212;5.660;2023-09-07T04:20:42;17.40;99.90
52495;DHT22;38405;53.212;5.660;2023-09-07T04:23:08;17.40;99.90
52495;DHT22;38405;53.212;5.660;2023-09-07T04:25:34;17.40;99.90
52495;DHT22;38405;53.212;5.660;2023-09-07T04:28:00;17.40;99.90
52495;DHT22;38405;53.212;5.660;2023-09-07T04:30:26;17.40;99.90
52495;DHT22;38405;53.212;5.660;2023-09-07T04:32:54;17.40;99.90
52495;DHT22;38405;53.212;5.660;2023-09-07T04:35:20;17.40;99.90
52495;DHT22;38405;53.212;5.660;2023-09-07T04:37:45;17.40;99.90
52495;DHT22;38405;53.212;5.660;2023-09-07T04:40:11;17.40;99.90
52495;DHT22;38405;53.212;5.660;2023-09-07T04:42:37;17.40;99.90
52495;DHT22;38405;53.212;5.660;2023-09-07T04:45:06;17.40;99.90
52495;DHT22;38405;53.212;5.660;2023-09-07T04:47:32;17.40;99.90
52495;DHT22;38405;53.212;5.660;2023-09-07T04:49:58;17.40;99.90
52495;DHT22;38405;53.212;5.660;2023-09-07T04:52:23;17.40;99.90
52495;DHT22;38405;53.212;5.660;2023-09-07T04:54:49;17.40;99.90
52495;DHT22;38405;53.212;5.660;2023-09-07T04:57:18;17.40;99.90
52495;DHT22;38405;53.212;5.660;2023-09-07T04:59:44;17.40;99.90
52495;DHT22;38405;53.212;5.660;2023-09-07T05:02:09;17.40;99.90
52495;DHT22;38405;53.212;5.660;2023-09-07T05:04:37;17.40;99.90
52495;DHT22;38405;53.212;5.660;2023-09-07T05:07:03;17.30;99.90
52495;DHT22;38405;53.212;5.660;2023-09-07T05:09:29;17.30;99.90
52495;DHT22;38405;53.212;5.660;2023-09-07T05:11:55;17.30;99.90
52495;DHT22;38405;53.212;5.660;2023-09-07T05:14:23;17.40;99.90
52495;DHT22;38405;53.212;5.660;2023-09-07T05:16:48;17.40;99.90
52495;DHT22;38405;53.212;5.660;2023-09-07T05:19:14;17.40;99.90
52495;DHT22;38405;53.212;5.660;2023-09-07T05:21:40;17.40;99.90
52495;DHT22;38405;53.212;5.660;2023-09-07T05:24:06;17.40;99.90
52495;DHT22;38405;53.212;5.660;2023-09-07T05:26:31;17.40;99.90
52495;DHT22;38405;53.212;5.660;2023-09-07T05:28:57;17.40;99.90
52495;DHT22;38405;53.212;5.660;2023-09-07T05:31:23;17.40;99.90
52495;DHT22;38405;53.212;5.660;2023-09-07T05:33:48;17.50;99.90
52495;DHT22;38405;53.212;5.660;2023-09-07T05:36:14;17.40;99.90
52495;DHT22;38405;53.212;5.660;2023-09-07T05:38:40;17.50;99.90
52495;DHT22;38405;53.212;5.660;2023-09-07T05:41:06;17.50;99.90
52495;DHT22;38405;53.212;5.660;2023-09-07T05:43:32;17.50;99.90
52495;DHT22;38405;53.212;5.660;2023-09-07T05:45:58;17.50;99.90
52495;DHT22;38405;53.212;5.660;2023-09-07T05:48:23;17.60;99.90
52495;DHT22;38405;53.212;5.660;2023-09-07T05:50:49;17.70;99.90
52495;DHT22;38405;53.212;5.660;2023-09-07T05:53:15;17.70;99.90
52495;DHT22;38405;53.212;5.660;2023-09-07T05:55:40;17.70;99.90
52495;DHT22;38405;53.212;5.660;2023-09-07T05:58:07;17.80;99.90
52495;DHT22;38405;53.212;5.660;2023-09-07T06:00:36;17.90;99.90
52495;DHT22;38405;53.212;5.660;2023-09-07T06:03:05;18.00;99.90
52495;DHT22;38405;53.212;5.660;2023-09-07T06:05:31;18.10;99.90
52495;DHT22;38405;53.212;5.660;2023-09-07T06:07:57;18.20;99.90
52495;DHT22;38405;53.212;5.660;2023-09-07T06:10:23;18.20;99.90
52495;DHT22;38405;53.212;5.660;2023-09-07T06:12:49;18.20;99.90
52495;DHT22;38405;53.212;5.660;2023-09-07T06:15:15;18.30;99.90
52495;DHT22;38405;53.212;5.660;2023-09-07T06:17:40;18.30;99.90
52495;DHT22;38405;53.212;5.660;2023-09-07T06:20:06;18.30;99.90
52495;DHT22;38405;53.212;5.660;2023-09-07T06:22:32;18.40;99.90
52495;DHT22;38405;53.212;5.660;2023-09-07T06:24:58;18.40;99.90
52495;DHT22;38405;53.212;5.660;2023-09-07T06:27:24;18.50;99.90
52495;DHT22;38405;53.212;5.660;2023-09-07T06:29:49;18.60;99.90
52495;DHT22;38405;53.212;5.660;2023-09-07T06:32:16;18.60;99.90
52495;DHT22;38405;53.212;5.660;2023-09-07T06:34:42;18.70;99.90
52495;DHT22;38405;53.212;5.660;2023-09-07T06:37:07;18.80;99.90
52495;DHT22;38405;53.212;5.660;2023-09-07T06:39:33;18.80;99.90
52495;DHT22;38405;53.212;5.660;2023-09-07T06:41:59;18.90;99.90
52495;DHT22;38405;53.212;5.660;2023-09-07T06:44:25;19.00;99.90
52495;DHT22;38405;53.212;5.660;2023-09-07T06:46:50;19.10;99.90
52495;DHT22;38405;53.212;5.660;2023-09-07T06:49:16;19.10;99.90
52495;DHT22;38405;53.212;5.660;2023-09-07T06:51:42;19.30;99.90
52495;DHT22;38405;53.212;5.660;2023-09-07T06:54:07;19.40;99.90
52495;DHT22;38405;53.212;5.660;2023-09-07T06:56:33;19.50;99.90
52495;DHT22;38405;53.212;5.660;2023-09-07T06:59:00;19.70;99.90
52495;DHT22;38405;53.212;5.660;2023-09-07T07:01:26;20.70;99.90
52495;DHT22;38405;53.212;5.660;2023-09-07T07:03:52;22.30;99.90
52495;DHT22;38405;53.212;5.660;2023-09-07T07:06:18;23.80;99.90
52495;DHT22;38405;53.212;5.660;2023-09-07T07:08:44;25.00;99.90
52495;DHT22;38405;53.212;5.660;2023-09-07T07:11:10;25.80;99.90
52495;DHT22;38405;53.212;5.660;2023-09-07T07:13:36;26.40;99.90
52495;DHT22;38405;53.212;5.660;2023-09-07T07:16:02;27.00;99.90
52495;DHT22;38405;53.212;5.660;2023-09-07T07:18:29;27.80;99.20
52495;DHT22;38405;53.212;5.660;2023-09-07T07:20:55;28.60;98.00
52495;DHT22;38405;53.212;5.660;2023-09-07T07:23:20;29.30;96.80
52495;DHT22;38405;53.212;5.660;2023-09-07T07:25:46;29.80;95.80
52495;DHT22;38405;53.212;5.660;2023-09-07T07:28:12;30.20;94.80
52495;DHT22;38405;53.212;5.660;2023-09-07T07:30:39;30.70;94.10
52495;DHT22;38405;53.212;5.660;2023-09-07T07:33:08;31.40;93.40
52495;DHT22;38405;53.212;5.660;2023-09-07T07:35:34;31.80;92.50
52495;DHT22;38405;53.212;5.660;2023-09-07T07:38:01;31.90;91.50
52495;DHT22;38405;53.212;5.660;2023-09-07T07:40:26;31.80;91.10
52495;DHT22;38405;53.212;5.660;2023-09-07T07:42:53;31.80;90.70
52495;DHT22;38405;53.212;5.660;2023-09-07T07:45:19;31.80;90.20
52495;DHT22;38405;53.212;5.660;2023-09-07T07:47:46;31.70;89.60
52495;DHT22;38405;53.212;5.660;2023-09-07T07:50:12;31.80;89.70
52495;DHT22;38405;53.212;5.660;2023-09-07T07:52:38;32.30;88.80
52495;DHT22;38405;53.212;5.660;2023-09-07T07:55:03;32.80;88.40
52495;DHT22;38405;53.212;5.660;2023-09-07T07:57:29;33.40;87.10
52495;DHT22;38405;53.212;5.660;2023-09-07T07:59:56;34.00;84.90
52495;DHT22;38405;53.212;5.660;2023-09-07T08:02:22;34.50;82.90
52495;DHT22;38405;53.212;5.660;2023-09-07T08:04:48;34.50;81.70
52495;DHT22;38405;53.212;5.660;2023-09-07T08:07:14;34.50;81.60
52495;DHT22;38405;53.212;5.660;2023-09-07T08:09:39;34.50;80.90
52495;DHT22;38405;53.212;5.660;2023-09-07T08:12:06;34.70;80.10
52495;DHT22;38405;53.212;5.660;2023-09-07T08:14:32;34.50;79.20
52495;DHT22;38405;53.212;5.660;2023-09-07T08:16:58;34.50;79.30
52495;DHT22;38405;53.212;5.660;2023-09-07T08:19:24;34.60;78.50
52495;DHT22;38405;53.212;5.660;2023-09-07T08:21:53;34.50;77.80
52495;DHT22;38405;53.212;5.660;2023-09-07T08:24:19;34.60;78.10
52495;DHT22;38405;53.212;5.660;2023-09-07T08:26:44;34.60;77.50
52495;DHT22;38405;53.212;5.660;2023-09-07T08:29:10;34.80;77.60
52495;DHT22;38405;53.212;5.660;2023-09-07T08:31:37;34.80;77.30
52495;DHT22;38405;53.212;5.660;2023-09-07T08:34:05;34.90;76.40
52495;DHT22;38405;53.212;5.660;2023-09-07T08:36:32;34.60;75.00
52495;DHT22;38405;53.212;5.660;2023-09-07T08:39:00;34.60;75.20
52495;DHT22;38405;53.212;5.660;2023-09-07T08:41:37;34.70;75.00
52495;DHT22;38405;53.212;5.660;2023-09-07T08:44:10;34.80;74.70
52495;DHT22;38405;53.212;5.660;2023-09-07T08:46:37;34.80;73.90
52495;DHT22;38405;53.212;5.660;2023-09-07T08:49:03;34.40;73.20
52495;DHT22;38405;53.212;5.660;2023-09-07T08:51:30;34.00;73.80
52495;DHT22;38405;53.212;5.660;2023-09-07T08:53:57;33.80;74.50
52495;DHT22;38405;53.212;5.660;2023-09-07T08:56:24;33.70;74.90
52495;DHT22;38405;53.212;5.660;2023-09-07T08:58:50;33.70;74.80
52495;DHT22;38405;53.212;5.660;2023-09-07T09:01:16;33.70;74.20
52495;DHT22;38405;53.212;5.660;2023-09-07T09:03:42;33.40;73.80
52495;DHT22;38405;53.212;5.660;2023-09-07T09:06:11;33.30;74.10
52495;DHT22;38405;53.212;5.660;2023-09-07T09:11:16;32.90;73.20
52495;DHT22;38405;53.212;5.660;2023-09-07T09:13:43;32.50;74.30
52495;DHT22;38405;53.212;5.660;2023-09-07T09:16:10;31.90;74.50
52495;DHT22;38405;53.212;5.660;2023-09-07T09:18:36;31.30;76.10
52495;DHT22;38405;53.212;5.660;2023-09-07T09:21:01;30.70;76.20
52495;DHT22;38405;53.212;5.660;2023-09-07T09:23:32;30.20;77.30
52495;DHT22;38405;53.212;5.660;2023-09-07T09:26:00;29.80;78.10
52495;DHT22;38405;53.212;5.660;2023-09-07T09:28:26;29.60;79.10
52495;DHT22;38405;53.212;5.660;2023-09-07T09:30:53;29.40;79.50
52495;DHT22;38405;53.212;5.660;2023-09-07T09:33:22;29.40;80.00
52495;DHT22;38405;53.212;5.660;2023-09-07T09:35:49;29.40;80.00
52495;DHT22;38405;53.212;5.660;2023-09-07T09:38:16;29.40;80.70
52495;DHT22;38405;53.212;5.660;2023-09-07T09:40:42;29.30;80.30
52495;DHT22;38405;53.212;5.660;2023-09-07T09:43:08;29.30;80.80
52495;DHT22;38405;53.212;5.660;2023-09-07T09:45:34;29.40;80.80
52495;DHT22;38405;53.212;5.660;2023-09-07T09:48:01;29.40;80.90
52495;DHT22;38405;53.212;5.660;2023-09-07T09:50:28;29.50;80.70
52495;DHT22;38405;53.212;5.660;2023-09-07T09:52:55;29.60;80.70
52495;DHT22;38405;53.212;5.660;2023-09-07T09:55:22;29.80;81.10
52495;DHT22;38405;53.212;5.660;2023-09-07T09:57:48;29.90;80.10
52495;DHT22;38405;53.212;5.660;2023-09-07T10:00:16;30.00;78.60
52495;DHT22;38405;53.212;5.660;2023-09-07T10:02:44;29.90;77.60
52495;DHT22;38405;53.212;5.660;2023-09-07T10:05:10;29.90;77.40
52495;DHT22;38405;53.212;5.660;2023-09-07T10:07:44;29.80;77.30
52495;DHT22;38405;53.212;5.660;2023-09-07T10:10:14;29.80;78.70
52495;DHT22;38405;53.212;5.660;2023-09-07T10:12:43;29.90;79.10
52495;DHT22;38405;53.212;5.660;2023-09-07T10:15:30;30.00;79.60
52495;DHT22;38405;53.212;5.660;2023-09-07T10:18:32;30.20;78.90
52495;DHT22;38405;53.212;5.660;2023-09-07T10:20:58;30.30;78.50
52495;DHT22;38405;53.212;5.660;2023-09-07T10:23:45;30.30;78.90
52495;DHT22;38405;53.212;5.660;2023-09-07T10:28:36;30.30;78.20
52495;DHT22;38405;53.212;5.660;2023-09-07T10:31:07;30.30;78.40
52495;DHT22;38405;53.212;5.660;2023-09-07T10:33:38;30.20;78.20
52495;DHT22;38405;53.212;5.660;2023-09-07T10:36:05;30.20;77.80
52495;DHT22;38405;53.212;5.660;2023-09-07T10:38:35;30.20;78.00
52495;DHT22;38405;53.212;5.660;2023-09-07T10:41:04;30.30;78.40
52495;DHT22;38405;53.212;5.660;2023-09-07T10:43:32;30.50;78.30
52495;DHT22;38405;53.212;5.660;2023-09-07T10:45:59;30.50;78.00
52495;DHT22;38405;53.212;5.660;2023-09-07T10:48:28;30.50;77.70
52495;DHT22;38405;53.212;5.660;2023-09-07T10:50:54;30.50;77.20
52495;DHT22;38405;53.212;5.660;2023-09-07T10:53:30;30.50;77.20
52495;DHT22;38405;53.212;5.660;2023-09-07T10:56:03;30.60;77.50
52495;DHT22;38405;53.212;5.660;2023-09-07T10:58:33;30.60;77.70
52495;DHT22;38405;53.212;5.660;2023-09-07T11:01:00;30.70;77.10
52495;DHT22;38405;53.212;5.660;2023-09-07T11:03:27;30.60;76.80
52495;DHT22;38405;53.212;5.660;2023-09-07T11:06:04;30.60;76.80
52495;DHT22;38405;53.212;5.660;2023-09-07T11:08:32;30.50;74.80
52495;DHT22;38405;53.212;5.660;2023-09-07T11:11:02;30.40;76.20
52495;DHT22;38405;53.212;5.660;2023-09-07T11:13:28;30.40;76.90
52495;DHT22;38405;53.212;5.660;2023-09-07T11:15:58;30.50;76.80
52495;DHT22;38405;53.212;5.660;2023-09-07T11:18:25;30.50;76.00
52495;DHT22;38405;53.212;5.660;2023-09-07T11:20:52;30.40;75.50
52495;DHT22;38405;53.212;5.660;2023-09-07T11:23:21;30.40;76.40
52495;DHT22;38405;53.212;5.660;2023-09-07T11:25:49;30.60;76.70
52495;DHT22;38405;53.212;5.660;2023-09-07T11:28:17;30.60;76.70
52495;DHT22;38405;53.212;5.660;2023-09-07T11:30:54;30.60;76.60
52495;DHT22;38405;53.212;5.660;2023-09-07T11:33:21;30.70;76.00
52495;DHT22;38405;53.212;5.660;2023-09-07T11:35:47;30.60;76.40
52495;DHT22;38405;53.212;5.660;2023-09-07T11:38:14;30.50;76.00
52495;DHT22;38405;53.212;5.660;2023-09-07T11:40:41;30.50;75.40
52495;DHT22;38405;53.212;5.660;2023-09-07T11:43:14;30.40;75.70
52495;DHT22;38405;53.212;5.660;2023-09-07T11:45:43;30.30;75.60
52495;DHT22;38405;53.212;5.660;2023-09-07T11:48:10;30.10;75.70
52495;DHT22;38405;53.212;5.660;2023-09-07T11:50:36;30.10;75.90
52495;DHT22;38405;53.212;5.660;2023-09-07T11:53:04;30.00;75.80
52495;DHT22;38405;53.212;5.660;2023-09-07T11:55:31;30.00;77.10
52495;DHT22;38405;53.212;5.660;2023-09-07T11:57:56;30.00;78.00
52495;DHT22;38405;53.212;5.660;2023-09-07T12:00:23;30.00;77.30
52495;DHT22;38405;53.212;5.660;2023-09-07T12:02:49;29.90;77.10
52495;DHT22;38405;53.212;5.660;2023-09-07T12:05:15;30.00;77.60
52495;DHT22;38405;53.212;5.660;2023-09-07T12:07:41;29.90;77.80
52495;DHT22;38405;53.212;5.660;2023-09-07T12:10:10;29.90;77.70
52495;DHT22;38405;53.212;5.660;2023-09-07T12:12:37;30.00;77.90
52495;DHT22;38405;53.212;5.660;2023-09-07T12:15:03;29.90;78.50
52495;DHT22;38405;53.212;5.660;2023-09-07T12:17:30;29.90;78.60
52495;DHT22;38405;53.212;5.660;2023-09-07T12:19:56;29.90;78.50
52495;DHT22;38405;53.212;5.660;2023-09-07T12:22:22;29.80;78.80
52495;DHT22;38405;53.212;5.660;2023-09-07T12:24:47;29.90;79.10
52495;DHT22;38405;53.212;5.660;2023-09-07T12:27:13;29.90;78.70
52495;DHT22;38405;53.212;5.660;2023-09-07T12:29:39;29.90;78.90
52495;DHT22;38405;53.212;5.660;2023-09-07T12:32:05;29.80;79.20
52495;DHT22;38405;53.212;5.660;2023-09-07T12:34:31;29.80;78.90
52495;DHT22;38405;53.212;5.660;2023-09-07T12:36:56;29.80;78.60
52495;DHT22;38405;53.212;5.660;2023-09-07T12:39:22;29.70;78.50
52495;DHT22;38405;53.212;5.660;2023-09-07T12:41:48;29.60;78.60
52495;DHT22;38405;53.212;5.660;2023-09-07T12:44:13;29.50;78.40
52495;DHT22;38405;53.212;5.660;2023-09-07T12:46:39;29.30;78.10
52495;DHT22;38405;53.212;5.660;2023-09-07T12:49:05;29.30;79.70
52495;DHT22;38405;53.212;5.660;2023-09-07T12:51:31;29.30;79.60
52495;DHT22;38405;53.212;5.660;2023-09-07T12:53:57;29.30;79.00
52495;DHT22;38405;53.212;5.660;2023-09-07T12:56:22;29.30;78.90
52495;DHT22;38405;53.212;5.660;2023-09-07T12:58:48;29.20;78.20
52495;DHT22;38405;53.212;5.660;2023-09-07T13:01:14;29.20;78.20
52495;DHT22;38405;53.212;5.660;2023-09-07T13:03:42;29.10;78.70
52495;DHT22;38405;53.212;5.660;2023-09-07T13:06:07;29.10;77.10
52495;DHT22;38405;53.212;5.660;2023-09-07T13:08:34;29.10;76.10
52495;DHT22;38405;53.212;5.660;2023-09-07T13:10:59;29.00;75.60
52495;DHT22;38405;53.212;5.660;2023-09-07T13:13:25;29.00;75.50
52495;DHT22;38405;53.212;5.660;2023-09-07T13:15:58;28.90;75.60
52495;DHT22;38405;53.212;5.660;2023-09-07T13:18:24;28.80;77.30
52495;DHT22;38405;53.212;5.660;2023-09-07T13:20:50;28.80;77.40
52495;DHT22;38405;53.212;5.660;2023-09-07T13:23:18;28.70;78.10
52495;DHT22;38405;53.212;5.660;2023-09-07T13:25:44;28.60;78.60
52495;DHT22;38405;53.212;5.660;2023-09-07T13:28:10;28.70;79.50
52495;DHT22;38405;53.212;5.660;2023-09-07T13:30:35;28.70;79.50
52495;DHT22;38405;53.212;5.660;2023-09-07T13:33:01;28.70;79.50
52495;DHT22;38405;53.212;5.660;2023-09-07T13:35:27;28.70;80.00
52495;DHT22;38405;53.212;5.660;2023-09-07T13:37:52;28.80;81.20
52495;DHT22;38405;53.212;5.660;2023-09-07T13:40:18;28.80;80.70
52495;DHT22;38405;53.212;5.660;2023-09-07T13:42:48;28.80;80.50
52495;DHT22;38405;53.212;5.660;2023-09-07T13:45:13;28.70;80.50
52495;DHT22;38405;53.212;5.660;2023-09-07T13:47:39;28.70;79.80
52495;DHT22;38405;53.212;5.660;2023-09-07T13:50:05;28.70;79.70
52495;DHT22;38405;53.212;5.660;2023-09-07T13:52:32;28.70;79.90
52495;DHT22;38405;53.212;5.660;2023-09-07T13:54:57;28.60;80.20
52495;DHT22;38405;53.212;5.660;2023-09-07T13:57:23;28.70;80.60
52495;DHT22;38405;53.212;5.660;2023-09-07T13:59:49;28.70;80.80
52495;DHT22;38405;53.212;5.660;2023-09-07T14:02:14;28.70;81.00
52495;DHT22;38405;53.212;5.660;2023-09-07T14:04:40;28.70;81.20
52495;DHT22;38405;53.212;5.660;2023-09-07T14:07:06;28.70;81.30
52495;DHT22;38405;53.212;5.660;2023-09-07T14:09:31;28.60;80.70
52495;DHT22;38405;53.212;5.660;2023-09-07T14:11:57;28.60;81.30
52495;DHT22;38405;53.212;5.660;2023-09-07T14:14:23;28.60;81.70
52495;DHT22;38405;53.212;5.660;2023-09-07T14:16:48;28.70;81.60
52495;DHT22;38405;53.212;5.660;2023-09-07T14:19:16;28.70;81.40
52495;DHT22;38405;53.212;5.660;2023-09-07T14:21:41;28.70;81.00
52495;DHT22;38405;53.212;5.660;2023-09-07T14:24:07;28.70;80.90
52495;DHT22;38405;53.212;5.660;2023-09-07T14:26:32;28.70;80.80
52495;DHT22;38405;53.212;5.660;2023-09-07T14:28:58;28.70;80.90
52495;DHT22;38405;53.212;5.660;2023-09-07T14:31:24;28.80;80.20
52495;DHT22;38405;53.212;5.660;2023-09-07T14:33:49;28.80;80.00
52495;DHT22;38405;53.212;5.660;2023-09-07T14:36:15;28.80;80.40
52495;DHT22;38405;53.212;5.660;2023-09-07T14:38:41;28.80;80.00
52495;DHT22;38405;53.212;5.660;2023-09-07T14:41:10;28.90;79.30
52495;DHT22;38405;53.212;5.660;2023-09-07T14:43:47;28.90;78.90
52495;DHT22;38405;53.212;5.660;2023-09-07T14:46:14;28.90;78.00
52495;DHT22;38405;53.212;5.660;2023-09-07T14:48:40;28.90;77.60
52495;DHT22;38405;53.212;5.660;2023-09-07T14:51:05;28.90;77.90
52495;DHT22;38405;53.212;5.660;2023-09-07T14:53:31;28.90;77.40
52495;DHT22;38405;53.212;5.660;2023-09-07T14:55:59;29.00;76.10
52495;DHT22;38405;53.212;5.660;2023-09-07T14:58:25;29.00;75.00
52495;DHT22;38405;53.212;5.660;2023-09-07T15:00:51;28.90;74.60
52495;DHT22;38405;53.212;5.660;2023-09-07T15:03:16;28.90;75.00
52495;DHT22;38405;53.212;5.660;2023-09-07T15:05:42;28.90;75.70
52495;DHT22;38405;53.212;5.660;2023-09-07T15:08:08;29.00;76.20
52495;DHT22;38405;53.212;5.660;2023-09-07T15:10:33;29.00;76.40
52495;DHT22;38405;53.212;5.660;2023-09-07T15:13:00;29.00;76.10
52495;DHT22;38405;53.212;5.660;2023-09-07T15:15:35;29.00;75.90
52495;DHT22;38405;53.212;5.660;2023-09-07T15:18:08;29.00;75.60
52495;DHT22;38405;53.212;5.660;2023-09-07T15:20:37;28.90;75.90
52495;DHT22;38405;53.212;5.660;2023-09-07T15:23:03;28.90;76.10
52495;DHT22;38405;53.212;5.660;2023-09-07T15:25:29;29.00;76.10
52495;DHT22;38405;53.212;5.660;2023-09-07T15:27:55;28.90;75.60
52495;DHT22;38405;53.212;5.660;2023-09-07T15:30:22;28.90;75.60
52495;DHT22;38405;53.212;5.660;2023-09-07T15:32:48;28.80;74.10